Simpson, Canada
Current Conditions -  °F | °C
As of 5:00 PM on Tuesday 27 Jan 2015 (Local Time) from CYXE Reporting Station
Overcast Overcast  
Wind Chill: 26°   Ceiling: 25000
Heat Index: 34°   Visibility: 15mi
Dew Point: 30°   Wind: 10mph
Humidity: 87%   Direction: 50°NE
Pressure: 29.85"   Gusts: NA
Location:  51.45°N, 105.45°W
Report Text: CYXE 272300Z 05009KT 15SM FEW120 SCT210 OVC250 01/M01 A2985 RMK AC1CI2CI5 SLP136
Loading
Personal Weather Stations






























Interactive Weather Map New forecast layout! Learn more

10-Day Weather Forecast

Advertisements
Track Severe Weather on mobile